sensor_id;sensor_type;location;lat;lon;timestamp;temperature;humidity
11426;DHT22;5769;47.998;7.788;2023-01-31T00:01:07;20.90;60.10
11426;DHT22;5769;47.998;7.788;2023-01-31T00:03:36;20.90;60.10
11426;DHT22;5769;47.998;7.788;2023-01-31T00:06:12;20.90;60.20
11426;DHT22;5769;47.998;7.788;2023-01-31T00:08:39;20.90;59.90
11426;DHT22;5769;47.998;7.788;2023-01-31T00:11:06;20.90;60.10
11426;DHT22;5769;47.998;7.788;2023-01-31T00:13:32;20.90;59.80
11426;DHT22;5769;47.998;7.788;2023-01-31T00:15:59;20.90;60.10
11426;DHT22;5769;47.998;7.788;2023-01-31T00:18:26;20.90;60.10
11426;DHT22;5769;47.998;7.788;2023-01-31T00:20:54;20.90;60.10
11426;DHT22;5769;47.998;7.788;2023-01-31T00:23:21;20.80;60.10
11426;DHT22;5769;47.998;7.788;2023-01-31T00:25:47;20.80;60.20
11426;DHT22;5769;47.998;7.788;2023-01-31T00:28:14;20.80;60.10
11426;DHT22;5769;47.998;7.788;2023-01-31T00:30:41;20.80;60.10
11426;DHT22;5769;47.998;7.788;2023-01-31T00:33:07;20.70;60.10
11426;DHT22;5769;47.998;7.788;2023-01-31T00:35:37;20.70;60.20
11426;DHT22;5769;47.998;7.788;2023-01-31T00:38:05;20.70;60.20
11426;DHT22;5769;47.998;7.788;2023-01-31T00:40:32;20.70;60.10
11426;DHT22;5769;47.998;7.788;2023-01-31T00:42:58;20.70;60.10
11426;DHT22;5769;47.998;7.788;2023-01-31T00:45:25;20.70;60.20
11426;DHT22;5769;47.998;7.788;2023-01-31T00:47:51;20.70;60.10
11426;DHT22;5769;47.998;7.788;2023-01-31T00:50:18;20.70;60.20
11426;DHT22;5769;47.998;7.788;2023-01-31T00:52:45;20.70;60.10
11426;DHT22;5769;47.998;7.788;2023-01-31T00:55:13;20.60;60.00
11426;DHT22;5769;47.998;7.788;2023-01-31T00:57:40;20.60;60.10
11426;DHT22;5769;47.998;7.788;2023-01-31T01:00:07;20.60;60.00
11426;DHT22;5769;47.998;7.788;2023-01-31T01:02:34;20.60;60.10
11426;DHT22;5769;47.998;7.788;2023-01-31T01:05:01;20.60;60.10
11426;DHT22;5769;47.998;7.788;2023-01-31T01:07:27;20.60;60.10
11426;DHT22;5769;47.998;7.788;2023-01-31T01:09:54;20.60;60.00
11426;DHT22;5769;47.998;7.788;2023-01-31T01:12:22;20.60;60.00
11426;DHT22;5769;47.998;7.788;2023-01-31T01:14:49;20.60;60.00
11426;DHT22;5769;47.998;7.788;2023-01-31T01:17:15;20.60;60.00
11426;DHT22;5769;47.998;7.788;2023-01-31T01:19:42;20.50;60.00
11426;DHT22;5769;47.998;7.788;2023-01-31T01:22:09;20.50;59.90
11426;DHT22;5769;47.998;7.788;2023-01-31T01:24:41;20.50;60.00
11426;DHT22;5769;47.998;7.788;2023-01-31T01:27:08;20.50;60.00
11426;DHT22;5769;47.998;7.788;2023-01-31T01:29:36;20.50;59.90
11426;DHT22;5769;47.998;7.788;2023-01-31T01:32:03;20.50;59.90
11426;DHT22;5769;47.998;7.788;2023-01-31T01:34:31;20.50;59.90
11426;DHT22;5769;47.998;7.788;2023-01-31T01:36:58;20.50;59.90
11426;DHT22;5769;47.998;7.788;2023-01-31T01:39:25;20.50;59.90
11426;DHT22;5769;47.998;7.788;2023-01-31T01:41:54;20.50;60.60
11426;DHT22;5769;47.998;7.788;2023-01-31T01:44:51;20.50;59.90
11426;DHT22;5769;47.998;7.788;2023-01-31T01:47:24;20.50;59.90
11426;DHT22;5769;47.998;7.788;2023-01-31T01:49:55;20.50;59.90
11426;DHT22;5769;47.998;7.788;2023-01-31T01:52:23;20.50;59.80
11426;DHT22;5769;47.998;7.788;2023-01-31T01:54:55;20.50;59.80
11426;DHT22;5769;47.998;7.788;2023-01-31T01:57:26;20.50;59.80
11426;DHT22;5769;47.998;7.788;2023-01-31T02:00:03;20.50;59.80
11426;DHT22;5769;47.998;7.788;2023-01-31T02:02:33;20.40;59.80
11426;DHT22;5769;47.998;7.788;2023-01-31T02:05:00;20.40;59.80
11426;DHT22;5769;47.998;7.788;2023-01-31T02:07:27;20.40;59.80
11426;DHT22;5769;47.998;7.788;2023-01-31T02:09:57;20.40;59.80
11426;DHT22;5769;47.998;7.788;2023-01-31T02:12:26;20.40;59.80
11426;DHT22;5769;47.998;7.788;2023-01-31T02:14:53;20.40;59.80
11426;DHT22;5769;47.998;7.788;2023-01-31T02:17:21;20.40;59.80
11426;DHT22;5769;47.998;7.788;2023-01-31T02:20:00;20.40;59.80
11426;DHT22;5769;47.998;7.788;2023-01-31T02:22:32;20.40;59.80
11426;DHT22;5769;47.998;7.788;2023-01-31T02:25:25;20.40;59.80
11426;DHT22;5769;47.998;7.788;2023-01-31T02:28:36;20.40;59.80
11426;DHT22;5769;47.998;7.788;2023-01-31T02:31:29;20.30;59.70
11426;DHT22;5769;47.998;7.788;2023-01-31T02:34:03;20.40;59.80
11426;DHT22;5769;47.998;7.788;2023-01-31T02:36:39;20.40;59.80
11426;DHT22;5769;47.998;7.788;2023-01-31T02:39:15;20.30;59.70
11426;DHT22;5769;47.998;7.788;2023-01-31T02:41:49;20.30;59.70
11426;DHT22;5769;47.998;7.788;2023-01-31T02:44:22;20.30;59.70
11426;DHT22;5769;47.998;7.788;2023-01-31T02:47:15;20.30;59.70
11426;DHT22;5769;47.998;7.788;2023-01-31T02:49:49;20.40;59.70
11426;DHT22;5769;47.998;7.788;2023-01-31T02:52:21;20.30;59.70
11426;DHT22;5769;47.998;7.788;2023-01-31T02:54:55;20.30;59.70
11426;DHT22;5769;47.998;7.788;2023-01-31T02:57:43;20.30;59.70
11426;DHT22;5769;47.998;7.788;2023-01-31T03:00:11;20.30;59.70
11426;DHT22;5769;47.998;7.788;2023-01-31T03:02:39;20.30;59.70
11426;DHT22;5769;47.998;7.788;2023-01-31T03:05:11;20.30;59.70
11426;DHT22;5769;47.998;7.788;2023-01-31T03:07:40;20.30;59.70
11426;DHT22;5769;47.998;7.788;2023-01-31T03:10:18;20.30;59.70
11426;DHT22;5769;47.998;7.788;2023-01-31T03:12:50;20.30;59.70
11426;DHT22;5769;47.998;7.788;2023-01-31T03:15:40;20.30;59.70
11426;DHT22;5769;47.998;7.788;2023-01-31T03:18:32;20.30;59.70
11426;DHT22;5769;47.998;7.788;2023-01-31T03:21:03;20.30;59.70
11426;DHT22;5769;47.998;7.788;2023-01-31T03:23:33;20.30;59.70
11426;DHT22;5769;47.998;7.788;2023-01-31T03:26:04;20.30;59.70
11426;DHT22;5769;47.998;7.788;2023-01-31T03:28:34;20.30;59.70
11426;DHT22;5769;47.998;7.788;2023-01-31T03:31:04;20.30;59.70
11426;DHT22;5769;47.998;7.788;2023-01-31T03:33:33;20.30;59.70
11426;DHT22;5769;47.998;7.788;2023-01-31T03:36:07;20.20;59.60
11426;DHT22;5769;47.998;7.788;2023-01-31T03:38:40;20.20;59.60
11426;DHT22;5769;47.998;7.788;2023-01-31T03:41:13;20.20;59.60
11426;DHT22;5769;47.998;7.788;2023-01-31T03:43:47;20.20;59.60
11426;DHT22;5769;47.998;7.788;2023-01-31T03:46:19;20.20;59.60
11426;DHT22;5769;47.998;7.788;2023-01-31T03:48:49;20.30;59.60
11426;DHT22;5769;47.998;7.788;2023-01-31T03:51:22;20.20;59.60
11426;DHT22;5769;47.998;7.788;2023-01-31T03:53:53;20.20;59.60
11426;DHT22;5769;47.998;7.788;2023-01-31T03:56:23;20.20;59.60
11426;DHT22;5769;47.998;7.788;2023-01-31T03:58:56;20.20;59.60
11426;DHT22;5769;47.998;7.788;2023-01-31T04:01:25;20.20;59.60
11426;DHT22;5769;47.998;7.788;2023-01-31T04:03:57;20.20;59.60
11426;DHT22;5769;47.998;7.788;2023-01-31T04:06:27;20.20;59.60
11426;DHT22;5769;47.998;7.788;2023-01-31T04:08:54;20.20;59.60
11426;DHT22;5769;47.998;7.788;2023-01-31T04:11:24;20.20;59.50
11426;DHT22;5769;47.998;7.788;2023-01-31T04:13:51;20.20;59.60
11426;DHT22;5769;47.998;7.788;2023-01-31T04:16:18;20.20;59.50
11426;DHT22;5769;47.998;7.788;2023-01-31T04:18:44;20.20;59.50
11426;DHT22;5769;47.998;7.788;2023-01-31T04:21:12;20.20;59.50
11426;DHT22;5769;47.998;7.788;2023-01-31T04:23:40;20.20;59.50
11426;DHT22;5769;47.998;7.788;2023-01-31T04:26:07;20.20;59.50
11426;DHT22;5769;47.998;7.788;2023-01-31T04:28:34;20.20;59.50
11426;DHT22;5769;47.998;7.788;2023-01-31T04:31:01;20.20;59.50
11426;DHT22;5769;47.998;7.788;2023-01-31T04:33:27;20.20;59.50
11426;DHT22;5769;47.998;7.788;2023-01-31T04:35:54;20.20;59.50
11426;DHT22;5769;47.998;7.788;2023-01-31T04:38:21;20.20;59.50
11426;DHT22;5769;47.998;7.788;2023-01-31T04:40:49;20.20;59.50
11426;DHT22;5769;47.998;7.788;2023-01-31T04:43:15;20.10;59.50
11426;DHT22;5769;47.998;7.788;2023-01-31T04:45:42;20.20;59.50
11426;DHT22;5769;47.998;7.788;2023-01-31T04:48:09;20.20;59.50
11426;DHT22;5769;47.998;7.788;2023-01-31T04:50:36;20.10;59.50
11426;DHT22;5769;47.998;7.788;2023-01-31T04:53:02;20.20;59.50
11426;DHT22;5769;47.998;7.788;2023-01-31T04:55:29;20.10;59.50
11426;DHT22;5769;47.998;7.788;2023-01-31T04:57:57;20.10;59.50
11426;DHT22;5769;47.998;7.788;2023-01-31T05:00:24;20.10;59.50
11426;DHT22;5769;47.998;7.788;2023-01-31T05:02:50;20.20;59.50
11426;DHT22;5769;47.998;7.788;2023-01-31T05:05:18;20.10;59.50
11426;DHT22;5769;47.998;7.788;2023-01-31T05:07:44;20.10;59.50
11426;DHT22;5769;47.998;7.788;2023-01-31T05:10:11;20.10;59.40
11426;DHT22;5769;47.998;7.788;2023-01-31T05:12:38;20.10;59.50
11426;DHT22;5769;47.998;7.788;2023-01-31T05:15:08;20.10;59.40
11426;DHT22;5769;47.998;7.788;2023-01-31T05:17:36;20.10;59.50
11426;DHT22;5769;47.998;7.788;2023-01-31T05:20:03;20.10;59.40
11426;DHT22;5769;47.998;7.788;2023-01-31T05:22:30;20.10;59.50
11426;DHT22;5769;47.998;7.788;2023-01-31T05:24:57;20.10;59.50
11426;DHT22;5769;47.998;7.788;2023-01-31T05:27:24;20.10;59.40
11426;DHT22;5769;47.998;7.788;2023-01-31T05:29:51;20.10;59.50
11426;DHT22;5769;47.998;7.788;2023-01-31T05:32:18;20.10;59.40
11426;DHT22;5769;47.998;7.788;2023-01-31T05:34:45;20.10;59.40
11426;DHT22;5769;47.998;7.788;2023-01-31T05:37:12;20.10;59.40
11426;DHT22;5769;47.998;7.788;2023-01-31T05:39:38;20.10;59.40
11426;DHT22;5769;47.998;7.788;2023-01-31T05:42:05;20.10;59.40
11426;DHT22;5769;47.998;7.788;2023-01-31T05:44:32;20.10;59.50
11426;DHT22;5769;47.998;7.788;2023-01-31T05:46:58;20.10;59.50
11426;DHT22;5769;47.998;7.788;2023-01-31T05:49:27;20.10;59.40
11426;DHT22;5769;47.998;7.788;2023-01-31T05:51:57;20.10;59.40
11426;DHT22;5769;47.998;7.788;2023-01-31T05:54:24;20.00;59.40
11426;DHT22;5769;47.998;7.788;2023-01-31T05:56:51;20.00;59.30
11426;DHT22;5769;47.998;7.788;2023-01-31T05:59:17;20.00;59.40
11426;DHT22;5769;47.998;7.788;2023-01-31T06:01:44;20.00;59.40
11426;DHT22;5769;47.998;7.788;2023-01-31T06:04:11;20.10;59.50
11426;DHT22;5769;47.998;7.788;2023-01-31T06:06:39;20.10;60.00
11426;DHT22;5769;47.998;7.788;2023-01-31T06:09:05;20.00;59.40
11426;DHT22;5769;47.998;7.788;2023-01-31T06:11:32;20.00;59.40
11426;DHT22;5769;47.998;7.788;2023-01-31T06:13:59;20.10;59.50
11426;DHT22;5769;47.998;7.788;2023-01-31T06:16:26;20.00;59.30
11426;DHT22;5769;47.998;7.788;2023-01-31T06:18:52;20.10;59.40
11426;DHT22;5769;47.998;7.788;2023-01-31T06:21:21;20.00;59.30
11426;DHT22;5769;47.998;7.788;2023-01-31T06:23:49;20.00;59.40
11426;DHT22;5769;47.998;7.788;2023-01-31T06:26:16;20.00;59.30
11426;DHT22;5769;47.998;7.788;2023-01-31T06:28:43;20.00;59.30
11426;DHT22;5769;47.998;7.788;2023-01-31T06:31:10;20.00;59.30
11426;DHT22;5769;47.998;7.788;2023-01-31T06:33:37;20.00;59.20
11426;DHT22;5769;47.998;7.788;2023-01-31T06:36:05;20.00;59.30
11426;DHT22;5769;47.998;7.788;2023-01-31T06:38:32;20.00;59.20
11426;DHT22;5769;47.998;7.788;2023-01-31T06:41:00;20.00;59.20
11426;DHT22;5769;47.998;7.788;2023-01-31T06:43:26;20.00;59.20
11426;DHT22;5769;47.998;7.788;2023-01-31T06:45:53;20.00;59.20
11426;DHT22;5769;47.998;7.788;2023-01-31T06:48:20;20.00;59.20
11426;DHT22;5769;47.998;7.788;2023-01-31T06:50:46;20.00;59.30
11426;DHT22;5769;47.998;7.788;2023-01-31T06:53:13;20.00;59.30
11426;DHT22;5769;47.998;7.788;2023-01-31T06:55:40;20.00;59.30
11426;DHT22;5769;47.998;7.788;2023-01-31T06:58:08;20.00;59.20
11426;DHT22;5769;47.998;7.788;2023-01-31T07:00:34;20.00;59.20
11426;DHT22;5769;47.998;7.788;2023-01-31T07:03:01;20.00;59.30
11426;DHT22;5769;47.998;7.788;2023-01-31T07:05:28;20.00;59.30
11426;DHT22;5769;47.998;7.788;2023-01-31T07:07:54;20.00;59.20
11426;DHT22;5769;47.998;7.788;2023-01-31T07:10:21;20.00;59.30
11426;DHT22;5769;47.998;7.788;2023-01-31T07:12:48;20.00;59.20
11426;DHT22;5769;47.998;7.788;2023-01-31T07:15:16;20.00;59.20
11426;DHT22;5769;47.998;7.788;2023-01-31T07:17:43;20.00;59.20
11426;DHT22;5769;47.998;7.788;2023-01-31T07:20:10;20.00;59.20
11426;DHT22;5769;47.998;7.788;2023-01-31T07:22:37;20.00;59.20
11426;DHT22;5769;47.998;7.788;2023-01-31T07:25:05;20.00;59.20
11426;DHT22;5769;47.998;7.788;2023-01-31T07:27:31;20.00;59.30
11426;DHT22;5769;47.998;7.788;2023-01-31T07:29:58;20.00;59.90
11426;DHT22;5769;47.998;7.788;2023-01-31T07:32:29;20.00;59.20
11426;DHT22;5769;47.998;7.788;2023-01-31T07:34:56;20.00;59.20
11426;DHT22;5769;47.998;7.788;2023-01-31T07:37:22;20.00;59.30
11426;DHT22;5769;47.998;7.788;2023-01-31T07:39:49;19.90;59.20
11426;DHT22;5769;47.998;7.788;2023-01-31T07:42:16;20.00;59.20
11426;DHT22;5769;47.998;7.788;2023-01-31T07:44:42;20.00;59.20
11426;DHT22;5769;47.998;7.788;2023-01-31T07:47:09;20.00;59.30
11426;DHT22;5769;47.998;7.788;2023-01-31T07:49:37;19.90;59.20
11426;DHT22;5769;47.998;7.788;2023-01-31T07:52:04;19.90;59.20
11426;DHT22;5769;47.998;7.788;2023-01-31T07:54:30;19.90;59.20
11426;DHT22;5769;47.998;7.788;2023-01-31T07:56:57;20.00;59.30
11426;DHT22;5769;47.998;7.788;2023-01-31T07:59:24;19.90;59.20
11426;DHT22;5769;47.998;7.788;2023-01-31T08:01:50;19.90;59.20
11426;DHT22;5769;47.998;7.788;2023-01-31T08:04:36;19.90;59.20
11426;DHT22;5769;47.998;7.788;2023-01-31T08:07:03;19.90;59.30
11426;DHT22;5769;47.998;7.788;2023-01-31T08:09:31;19.90;59.20
11426;DHT22;5769;47.998;7.788;2023-01-31T08:11:58;19.90;59.20
11426;DHT22;5769;47.998;7.788;2023-01-31T08:14:24;19.90;59.20
11426;DHT22;5769;47.998;7.788;2023-01-31T08:16:52;19.90;59.20
11426;DHT22;5769;47.998;7.788;2023-01-31T08:19:19;19.90;59.20
11426;DHT22;5769;47.998;7.788;2023-01-31T08:21:47;19.90;59.20
11426;DHT22;5769;47.998;7.788;2023-01-31T08:24:14;19.90;59.30
11426;DHT22;5769;47.998;7.788;2023-01-31T08:26:41;19.90;59.20
11426;DHT22;5769;47.998;7.788;2023-01-31T08:29:08;19.90;59.20
11426;DHT22;5769;47.998;7.788;2023-01-31T08:31:34;19.90;59.10
11426;DHT22;5769;47.998;7.788;2023-01-31T08:34:01;19.90;59.20
11426;DHT22;5769;47.998;7.788;2023-01-31T08:36:29;20.00;59.30
11426;DHT22;5769;47.998;7.788;2023-01-31T08:38:58;20.00;59.30
11426;DHT22;5769;47.998;7.788;2023-01-31T08:41:28;20.00;59.30
11426;DHT22;5769;47.998;7.788;2023-01-31T08:43:55;20.00;59.30
11426;DHT22;5769;47.998;7.788;2023-01-31T08:46:23;20.00;59.30
11426;DHT22;5769;47.998;7.788;2023-01-31T08:48:50;20.00;59.30
11426;DHT22;5769;47.998;7.788;2023-01-31T08:51:17;20.10;59.50
11426;DHT22;5769;47.998;7.788;2023-01-31T08:53:44;20.10;59.50
11426;DHT22;5769;47.998;7.788;2023-01-31T08:56:12;20.10;59.70
11426;DHT22;5769;47.998;7.788;2023-01-31T08:58:41;20.10;59.70
11426;DHT22;5769;47.998;7.788;2023-01-31T09:01:10;20.10;59.70
11426;DHT22;5769;47.998;7.788;2023-01-31T09:03:37;20.10;59.80
11426;DHT22;5769;47.998;7.788;2023-01-31T09:06:07;20.10;59.80
11426;DHT22;5769;47.998;7.788;2023-01-31T09:08:34;20.20;59.40
11426;DHT22;5769;47.998;7.788;2023-01-31T09:11:01;20.20;59.70
11426;DHT22;5769;47.998;7.788;2023-01-31T09:13:30;20.20;59.70
11426;DHT22;5769;47.998;7.788;2023-01-31T09:15:58;20.20;59.70
11426;DHT22;5769;47.998;7.788;2023-01-31T09:18:25;20.20;59.70
11426;DHT22;5769;47.998;7.788;2023-01-31T09:20:52;20.20;59.80
11426;DHT22;5769;47.998;7.788;2023-01-31T09:23:19;20.20;59.80
11426;DHT22;5769;47.998;7.788;2023-01-31T09:25:51;20.20;59.80
11426;DHT22;5769;47.998;7.788;2023-01-31T09:28:18;20.20;59.80
11426;DHT22;5769;47.998;7.788;2023-01-31T09:30:46;20.20;59.80
11426;DHT22;5769;47.998;7.788;2023-01-31T09:33:14;20.20;59.80
11426;DHT22;5769;47.998;7.788;2023-01-31T09:35:41;20.20;59.80
11426;DHT22;5769;47.998;7.788;2023-01-31T09:38:08;20.30;59.80
11426;DHT22;5769;47.998;7.788;2023-01-31T09:40:37;20.30;59.80
11426;DHT22;5769;47.998;7.788;2023-01-31T09:43:07;20.30;59.80
11426;DHT22;5769;47.998;7.788;2023-01-31T09:45:36;20.30;59.80
11426;DHT22;5769;47.998;7.788;2023-01-31T09:48:15;20.30;59.70
11426;DHT22;5769;47.998;7.788;2023-01-31T09:50:46;20.30;59.70
11426;DHT22;5769;47.998;7.788;2023-01-31T09:53:17;20.30;59.70
11426;DHT22;5769;47.998;7.788;2023-01-31T09:55:50;20.30;59.70
11426;DHT22;5769;47.998;7.788;2023-01-31T09:58:25;20.30;59.80
11426;DHT22;5769;47.998;7.788;2023-01-31T10:01:02;20.30;59.80
11426;DHT22;5769;47.998;7.788;2023-01-31T10:03:47;20.40;59.80
11426;DHT22;5769;47.998;7.788;2023-01-31T10:06:21;20.30;59.60
11426;DHT22;5769;47.998;7.788;2023-01-31T10:08:52;20.40;59.70
11426;DHT22;5769;47.998;7.788;2023-01-31T10:11:28;20.30;59.20
11426;DHT22;5769;47.998;7.788;2023-01-31T10:13:59;20.30;59.20
11426;DHT22;5769;47.998;7.788;2023-01-31T10:16:30;20.40;59.30
11426;DHT22;5769;47.998;7.788;2023-01-31T10:19:03;20.30;59.20
11426;DHT22;5769;47.998;7.788;2023-01-31T10:21:35;20.40;60.00
11426;DHT22;5769;47.998;7.788;2023-01-31T10:24:10;20.40;59.40
11426;DHT22;5769;47.998;7.788;2023-01-31T10:26:41;20.40;59.30
11426;DHT22;5769;47.998;7.788;2023-01-31T10:29:13;20.40;59.30
11426;DHT22;5769;47.998;7.788;2023-01-31T10:31:44;20.30;58.90
11426;DHT22;5769;47.998;7.788;2023-01-31T10:34:20;20.30;58.80
11426;DHT22;5769;47.998;7.788;2023-01-31T10:36:54;20.30;58.90
11426;DHT22;5769;47.998;7.788;2023-01-31T10:39:25;20.30;58.90
11426;DHT22;5769;47.998;7.788;2023-01-31T10:42:13;20.30;58.90
11426;DHT22;5769;47.998;7.788;2023-01-31T10:44:48;20.30;58.90
11426;DHT22;5769;47.998;7.788;2023-01-31T10:47:18;20.30;58.90
11426;DHT22;5769;47.998;7.788;2023-01-31T10:49:47;20.30;59.00
11426;DHT22;5769;47.998;7.788;2023-01-31T10:52:24;20.20;58.90
11426;DHT22;5769;47.998;7.788;2023-01-31T10:55:07;20.20;58.80
11426;DHT22;5769;47.998;7.788;2023-01-31T10:57:37;20.20;58.80
11426;DHT22;5769;47.998;7.788;2023-01-31T11:00:05;20.20;58.80
11426;DHT22;5769;47.998;7.788;2023-01-31T11:02:32;20.20;58.90
11426;DHT22;5769;47.998;7.788;2023-01-31T11:05:00;20.20;58.80
11426;DHT22;5769;47.998;7.788;2023-01-31T11:07:28;20.20;58.60
11426;DHT22;5769;47.998;7.788;2023-01-31T11:09:55;20.20;58.70
11426;DHT22;5769;47.998;7.788;2023-01-31T11:12:40;20.20;58.70
11426;DHT22;5769;47.998;7.788;2023-01-31T11:15:14;20.20;58.60
11426;DHT22;5769;47.998;7.788;2023-01-31T11:17:44;20.10;58.70
11426;DHT22;5769;47.998;7.788;2023-01-31T11:20:21;20.20;58.60
11426;DHT22;5769;47.998;7.788;2023-01-31T11:22:50;20.10;58.50
11426;DHT22;5769;47.998;7.788;2023-01-31T11:25:19;20.10;58.50
11426;DHT22;5769;47.998;7.788;2023-01-31T11:27:47;20.10;58.50
11426;DHT22;5769;47.998;7.788;2023-01-31T11:30:21;20.10;58.50
11426;DHT22;5769;47.998;7.788;2023-01-31T11:32:48;20.10;58.50
11426;DHT22;5769;47.998;7.788;2023-01-31T11:35:26;20.10;58.20
11426;DHT22;5769;47.998;7.788;2023-01-31T11:38:00;20.10;58.40
11426;DHT22;5769;47.998;7.788;2023-01-31T11:40:31;20.10;58.00
11426;DHT22;5769;47.998;7.788;2023-01-31T11:43:03;20.00;57.80
11426;DHT22;5769;47.998;7.788;2023-01-31T11:45:33;20.00;57.90
11426;DHT22;5769;47.998;7.788;2023-01-31T11:48:15;20.00;58.00
11426;DHT22;5769;47.998;7.788;2023-01-31T11:51:00;20.00;57.70
11426;DHT22;5769;47.998;7.788;2023-01-31T11:53:35;20.00;57.70
11426;DHT22;5769;47.998;7.788;2023-01-31T11:56:11;20.00;57.70
11426;DHT22;5769;47.998;7.788;2023-01-31T11:58:39;20.00;57.60
11426;DHT22;5769;47.998;7.788;2023-01-31T12:01:12;20.00;57.70
11426;DHT22;5769;47.998;7.788;2023-01-31T12:03:47;19.90;57.60
11426;DHT22;5769;47.998;7.788;2023-01-31T12:06:28;19.90;57.50
11426;DHT22;5769;47.998;7.788;2023-01-31T12:08:56;20.00;57.70
11426;DHT22;5769;47.998;7.788;2023-01-31T12:11:29;19.90;57.50
11426;DHT22;5769;47.998;7.788;2023-01-31T12:14:01;19.90;57.50
11426;DHT22;5769;47.998;7.788;2023-01-31T12:16:32;19.90;57.40
11426;DHT22;5769;47.998;7.788;2023-01-31T12:19:16;19.90;57.50
11426;DHT22;5769;47.998;7.788;2023-01-31T12:21:59;19.90;57.10
11426;DHT22;5769;47.998;7.788;2023-01-31T12:24:35;19.90;57.00
11426;DHT22;5769;47.998;7.788;2023-01-31T12:27:16;19.90;56.90
11426;DHT22;5769;47.998;7.788;2023-01-31T12:29:55;19.90;57.00
11426;DHT22;5769;47.998;7.788;2023-01-31T12:32:44;19.90;57.10
11426;DHT22;5769;47.998;7.788;2023-01-31T12:35:30;19.90;57.20
11426;DHT22;5769;47.998;7.788;2023-01-31T12:38:06;19.80;57.10
11426;DHT22;5769;47.998;7.788;2023-01-31T12:40:45;19.90;57.10
11426;DHT22;5769;47.998;7.788;2023-01-31T12:43:26;19.90;57.10
11426;DHT22;5769;47.998;7.788;2023-01-31T12:46:04;19.90;57.00
11426;DHT22;5769;47.998;7.788;2023-01-31T12:48:45;19.90;56.90
11426;DHT22;5769;47.998;7.788;2023-01-31T12:51:33;20.00;57.00
11426;DHT22;5769;47.998;7.788;2023-01-31T12:54:21;20.00;56.90
11426;DHT22;5769;47.998;7.788;2023-01-31T12:57:01;20.00;57.40
11426;DHT22;5769;47.998;7.788;2023-01-31T12:59:38;20.00;58.20
11426;DHT22;5769;47.998;7.788;2023-01-31T13:02:28;20.00;57.80
11426;DHT22;5769;47.998;7.788;2023-01-31T13:05:02;20.10;57.90
11426;DHT22;5769;47.998;7.788;2023-01-31T13:07:37;20.10;58.10
11426;DHT22;5769;47.998;7.788;2023-01-31T13:10:29;20.10;58.10
11426;DHT22;5769;47.998;7.788;2023-01-31T13:12:57;20.10;58.20
11426;DHT22;5769;47.998;7.788;2023-01-31T13:15:29;20.10;58.20
11426;DHT22;5769;47.998;7.788;2023-01-31T13:18:01;20.10;58.30
11426;DHT22;5769;47.998;7.788;2023-01-31T13:20:32;20.10;58.30
11426;DHT22;5769;47.998;7.788;2023-01-31T13:23:02;20.10;58.40
11426;DHT22;5769;47.998;7.788;2023-01-31T13:25:36;20.20;58.50
11426;DHT22;5769;47.998;7.788;2023-01-31T13:28:12;20.20;58.50
11426;DHT22;5769;47.998;7.788;2023-01-31T13:30:44;20.20;58.50
11426;DHT22;5769;47.998;7.788;2023-01-31T13:33:20;20.20;58.60
11426;DHT22;5769;47.998;7.788;2023-01-31T13:35:58;20.20;58.60
11426;DHT22;5769;47.998;7.788;2023-01-31T13:38:28;20.20;58.60
11426;DHT22;5769;47.998;7.788;2023-01-31T13:41:01;20.20;58.60
11426;DHT22;5769;47.998;7.788;2023-01-31T13:43:29;20.20;58.60
11426;DHT22;5769;47.998;7.788;2023-01-31T13:45:58;20.20;58.60
11426;DHT22;5769;47.998;7.788;2023-01-31T13:48:31;20.20;58.30
11426;DHT22;5769;47.998;7.788;2023-01-31T13:51:01;20.20;58.30
11426;DHT22;5769;47.998;7.788;2023-01-31T13:53:34;20.20;57.50
11426;DHT22;5769;47.998;7.788;2023-01-31T13:56:08;20.20;57.50
11426;DHT22;5769;47.998;7.788;2023-01-31T13:58:36;20.20;57.30
11426;DHT22;5769;47.998;7.788;2023-01-31T14:01:04;20.10;57.30
11426;DHT22;5769;47.998;7.788;2023-01-31T14:07:15;20.10;57.20
11426;DHT22;5769;47.998;7.788;2023-01-31T14:09:43;20.10;57.30
11426;DHT22;5769;47.998;7.788;2023-01-31T14:12:33;20.10;57.40
11426;DHT22;5769;47.998;7.788;2023-01-31T14:15:01;20.00;57.30
11426;DHT22;5769;47.998;7.788;2023-01-31T14:17:59;20.00;57.40
11426;DHT22;5769;47.998;7.788;2023-01-31T14:20:28;20.00;57.40
11426;DHT22;5769;47.998;7.788;2023-01-31T14:23:30;20.00;57.40
11426;DHT22;5769;47.998;7.788;2023-01-31T14:25:57;20.00;57.40
11426;DHT22;5769;47.998;7.788;2023-01-31T14:28:25;20.00;57.30
11426;DHT22;5769;47.998;7.788;2023-01-31T14:30:53;20.00;57.30
11426;DHT22;5769;47.998;7.788;2023-01-31T14:33:27;20.00;57.30
11426;DHT22;5769;47.998;7.788;2023-01-31T14:36:19;20.00;57.40
11426;DHT22;5769;47.998;7.788;2023-01-31T14:42:08;19.90;57.30
11426;DHT22;5769;47.998;7.788;2023-01-31T14:44:49;19.90;57.30
11426;DHT22;5769;47.998;7.788;2023-01-31T14:47:28;19.90;57.30
11426;DHT22;5769;47.998;7.788;2023-01-31T14:50:16;19.90;57.30
11426;DHT22;5769;47.998;7.788;2023-01-31T14:53:03;19.90;57.20
11426;DHT22;5769;47.998;7.788;2023-01-31T14:55:48;19.90;57.30
11426;DHT22;5769;47.998;7.788;2023-01-31T14:58:24;19.90;57.10
11426;DHT22;5769;47.998;7.788;2023-01-31T15:00:55;19.90;57.10
11426;DHT22;5769;47.998;7.788;2023-01-31T15:03:24;19.90;57.10
11426;DHT22;5769;47.998;7.788;2023-01-31T15:05:52;19.80;57.10
11426;DHT22;5769;47.998;7.788;2023-01-31T15:08:39;19.90;57.20
11426;DHT22;5769;47.998;7.788;2023-01-31T15:11:11;19.80;57.10
11426;DHT22;5769;47.998;7.788;2023-01-31T15:13:46;19.80;57.10
11426;DHT22;5769;47.998;7.788;2023-01-31T15:16:21;19.90;57.20
11426;DHT22;5769;47.998;7.788;2023-01-31T15:18:52;19.80;57.10
11426;DHT22;5769;47.998;7.788;2023-01-31T15:21:23;19.80;57.10
11426;DHT22;5769;47.998;7.788;2023-01-31T15:23:52;19.80;57.10
11426;DHT22;5769;47.998;7.788;2023-01-31T15:26:21;19.80;57.10
11426;DHT22;5769;47.998;7.788;2023-01-31T15:28:49;19.80;57.10
11426;DHT22;5769;47.998;7.788;2023-01-31T15:31:22;19.80;56.90
11426;DHT22;5769;47.998;7.788;2023-01-31T15:33:53;19.90;57.00
11426;DHT22;5769;47.998;7.788;2023-01-31T15:36:26;19.90;57.40
11426;DHT22;5769;47.998;7.788;2023-01-31T15:38:57;19.90;57.60
11426;DHT22;5769;47.998;7.788;2023-01-31T15:41:24;19.90;57.80
11426;DHT22;5769;47.998;7.788;2023-01-31T15:43:52;20.00;57.90
11426;DHT22;5769;47.998;7.788;2023-01-31T15:46:23;20.00;57.90
11426;DHT22;5769;47.998;7.788;2023-01-31T15:48:50;20.00;57.80
11426;DHT22;5769;47.998;7.788;2023-01-31T15:51:18;20.00;57.80
11426;DHT22;5769;47.998;7.788;2023-01-31T15:53:46;20.00;57.80
11426;DHT22;5769;47.998;7.788;2023-01-31T15:56:17;20.00;57.80
11426;DHT22;5769;47.998;7.788;2023-01-31T15:58:47;20.00;57.80
11426;DHT22;5769;47.998;7.788;2023-01-31T16:01:15;20.10;57.90
11426;DHT22;5769;47.998;7.788;2023-01-31T16:03:50;20.10;58.00
11426;DHT22;5769;47.998;7.788;2023-01-31T16:06:21;20.10;58.00
11426;DHT22;5769;47.998;7.788;2023-01-31T16:08:51;20.10;58.10
11426;DHT22;5769;47.998;7.788;2023-01-31T16:11:19;20.10;58.10
11426;DHT22;5769;47.998;7.788;2023-01-31T16:13:46;20.10;58.10
11426;DHT22;5769;47.998;7.788;2023-01-31T16:16:13;20.10;58.20